sensor_id;sensor_type;location;lat;lon;timestamp;P1;durP1;ratioP1;P2;durP2;ratioP2
18176;SDS011;9213;50.858;3.964;2022-10-20T00:02:20;23.50;;;14.60;;
18176;SDS011;9213;50.858;3.964;2022-10-20T00:04:47;21.53;;;13.97;;
18176;SDS011;9213;50.858;3.964;2022-10-20T00:07:13;21.50;;;14.83;;
18176;SDS011;9213;50.858;3.964;2022-10-20T00:09:42;21.47;;;14.70;;
18176;SDS011;9213;50.858;3.964;2022-10-20T00:12:08;19.10;;;12.53;;
18176;SDS011;9213;50.858;3.964;2022-10-20T00:14:35;21.43;;;14.10;;
18176;SDS011;9213;50.858;3.964;2022-10-20T00:17:03;23.00;;;13.50;;
18176;SDS011;9213;50.858;3.964;2022-10-20T00:19:30;22.20;;;14.50;;
18176;SDS011;9213;50.858;3.964;2022-10-20T00:21:58;25.50;;;14.17;;
18176;SDS011;9213;50.858;3.964;2022-10-20T00:24:24;24.93;;;14.57;;
18176;SDS011;9213;50.858;3.964;2022-10-20T00:26:53;28.67;;;14.53;;
18176;SDS011;9213;50.858;3.964;2022-10-20T00:29:19;21.80;;;15.27;;
18176;SDS011;9213;50.858;3.964;2022-10-20T00:31:46;23.00;;;15.10;;
18176;SDS011;9213;50.858;3.964;2022-10-20T00:34:13;21.20;;;13.93;;
18176;SDS011;9213;50.858;3.964;2022-10-20T00:36:40;23.60;;;15.53;;
18176;SDS011;9213;50.858;3.964;2022-10-20T00:39:07;23.53;;;14.40;;
18176;SDS011;9213;50.858;3.964;2022-10-20T00:41:33;24.30;;;15.20;;
18176;SDS011;9213;50.858;3.964;2022-10-20T00:44:02;20.73;;;14.00;;
18176;SDS011;9213;50.858;3.964;2022-10-20T00:46:44;24.23;;;13.87;;
18176;SDS011;9213;50.858;3.964;2022-10-20T00:49:11;24.67;;;14.63;;
18176;SDS011;9213;50.858;3.964;2022-10-20T00:51:42;28.07;;;15.57;;
18176;SDS011;9213;50.858;3.964;2022-10-20T00:54:12;29.70;;;15.43;;
18176;SDS011;9213;50.858;3.964;2022-10-20T00:56:42;27.33;;;16.07;;
18176;SDS011;9213;50.858;3.964;2022-10-20T00:59:12;24.83;;;15.13;;
18176;SDS011;9213;50.858;3.964;2022-10-20T01:01:42;25.43;;;15.70;;
18176;SDS011;9213;50.858;3.964;2022-10-20T01:04:09;24.83;;;15.17;;
18176;SDS011;9213;50.858;3.964;2022-10-20T01:06:37;20.83;;;14.87;;
18176;SDS011;9213;50.858;3.964;2022-10-20T01:09:04;26.77;;;15.93;;
18176;SDS011;9213;50.858;3.964;2022-10-20T01:11:33;22.87;;;15.40;;
18176;SDS011;9213;50.858;3.964;2022-10-20T01:14:11;25.00;;;16.33;;
18176;SDS011;9213;50.858;3.964;2022-10-20T01:16:50;27.60;;;15.93;;
18176;SDS011;9213;50.858;3.964;2022-10-20T01:19:48;26.80;;;16.23;;
18176;SDS011;9213;50.858;3.964;2022-10-20T01:22:35;25.53;;;15.70;;
18176;SDS011;9213;50.858;3.964;2022-10-20T01:25:17;26.53;;;15.73;;
18176;SDS011;9213;50.858;3.964;2022-10-20T01:27:53;23.17;;;15.80;;
18176;SDS011;9213;50.858;3.964;2022-10-20T01:30:24;29.30;;;15.77;;
18176;SDS011;9213;50.858;3.964;2022-10-20T01:32:56;24.77;;;16.80;;
18176;SDS011;9213;50.858;3.964;2022-10-20T01:35:37;26.20;;;16.43;;
18176;SDS011;9213;50.858;3.964;2022-10-20T01:38:12;26.97;;;16.60;;
18176;SDS011;9213;50.858;3.964;2022-10-20T01:40:47;33.20;;;17.10;;
18176;SDS011;9213;50.858;3.964;2022-10-20T01:43:19;24.07;;;16.70;;
18176;SDS011;9213;50.858;3.964;2022-10-20T01:45:49;27.33;;;16.57;;
18176;SDS011;9213;50.858;3.964;2022-10-20T01:48:20;27.17;;;16.80;;
18176;SDS011;9213;50.858;3.964;2022-10-20T01:50:50;27.53;;;16.63;;
18176;SDS011;9213;50.858;3.964;2022-10-20T01:53:18;27.70;;;17.10;;
18176;SDS011;9213;50.858;3.964;2022-10-20T01:55:46;32.60;;;18.20;;
18176;SDS011;9213;50.858;3.964;2022-10-20T01:58:24;30.93;;;17.63;;
18176;SDS011;9213;50.858;3.964;2022-10-20T02:01:11;25.53;;;16.40;;
18176;SDS011;9213;50.858;3.964;2022-10-20T02:03:44;30.90;;;17.73;;
18176;SDS011;9213;50.858;3.964;2022-10-20T02:06:19;28.07;;;17.27;;
18176;SDS011;9213;50.858;3.964;2022-10-20T02:09:02;27.57;;;16.67;;
18176;SDS011;9213;50.858;3.964;2022-10-20T02:11:33;29.40;;;16.90;;
18176;SDS011;9213;50.858;3.964;2022-10-20T02:14:08;32.33;;;17.43;;
18176;SDS011;9213;50.858;3.964;2022-10-20T02:16:38;29.97;;;18.13;;
18176;SDS011;9213;50.858;3.964;2022-10-20T02:19:16;30.83;;;17.17;;
18176;SDS011;9213;50.858;3.964;2022-10-20T02:21:46;28.03;;;16.60;;
18176;SDS011;9213;50.858;3.964;2022-10-20T02:24:15;29.47;;;16.73;;
18176;SDS011;9213;50.858;3.964;2022-10-20T02:26:44;31.97;;;17.30;;
18176;SDS011;9213;50.858;3.964;2022-10-20T02:29:13;26.50;;;16.47;;
18176;SDS011;9213;50.858;3.964;2022-10-20T02:31:41;26.17;;;16.73;;
18176;SDS011;9213;50.858;3.964;2022-10-20T02:34:10;27.40;;;17.17;;
18176;SDS011;9213;50.858;3.964;2022-10-20T02:36:38;31.00;;;16.63;;
18176;SDS011;9213;50.858;3.964;2022-10-20T02:39:06;30.70;;;17.50;;
18176;SDS011;9213;50.858;3.964;2022-10-20T02:41:34;27.77;;;16.53;;
18176;SDS011;9213;50.858;3.964;2022-10-20T02:44:01;29.03;;;17.93;;
18176;SDS011;9213;50.858;3.964;2022-10-20T02:46:29;25.73;;;16.53;;
18176;SDS011;9213;50.858;3.964;2022-10-20T02:48:56;26.83;;;17.33;;
18176;SDS011;9213;50.858;3.964;2022-10-20T02:51:23;27.07;;;17.17;;
18176;SDS011;9213;50.858;3.964;2022-10-20T02:53:50;25.67;;;16.23;;
18176;SDS011;9213;50.858;3.964;2022-10-20T02:56:18;24.97;;;16.03;;
18176;SDS011;9213;50.858;3.964;2022-10-20T02:58:46;30.23;;;17.17;;
18176;SDS011;9213;50.858;3.964;2022-10-20T03:01:13;25.97;;;15.77;;
18176;SDS011;9213;50.858;3.964;2022-10-20T03:03:41;27.47;;;16.87;;
18176;SDS011;9213;50.858;3.964;2022-10-20T03:06:08;25.83;;;15.77;;
18176;SDS011;9213;50.858;3.964;2022-10-20T03:08:36;24.30;;;15.10;;
18176;SDS011;9213;50.858;3.964;2022-10-20T03:11:03;27.87;;;17.47;;
18176;SDS011;9213;50.858;3.964;2022-10-20T03:13:30;29.13;;;17.27;;
18176;SDS011;9213;50.858;3.964;2022-10-20T03:15:57;30.83;;;17.97;;
18176;SDS011;9213;50.858;3.964;2022-10-20T03:18:25;26.47;;;16.43;;
18176;SDS011;9213;50.858;3.964;2022-10-20T03:20:53;29.57;;;17.17;;
18176;SDS011;9213;50.858;3.964;2022-10-20T03:23:20;32.23;;;17.10;;
18176;SDS011;9213;50.858;3.964;2022-10-20T03:25:47;24.73;;;15.97;;
18176;SDS011;9213;50.858;3.964;2022-10-20T03:28:14;26.23;;;16.43;;
18176;SDS011;9213;50.858;3.964;2022-10-20T03:30:41;27.07;;;16.17;;
18176;SDS011;9213;50.858;3.964;2022-10-20T03:33:10;27.57;;;17.17;;
18176;SDS011;9213;50.858;3.964;2022-10-20T03:35:37;28.90;;;15.47;;
18176;SDS011;9213;50.858;3.964;2022-10-20T03:38:05;24.23;;;15.30;;
18176;SDS011;9213;50.858;3.964;2022-10-20T03:40:32;27.40;;;17.47;;
18176;SDS011;9213;50.858;3.964;2022-10-20T03:42:59;31.73;;;17.70;;
18176;SDS011;9213;50.858;3.964;2022-10-20T03:45:25;30.80;;;16.53;;
18176;SDS011;9213;50.858;3.964;2022-10-20T03:47:52;32.00;;;15.83;;
18176;SDS011;9213;50.858;3.964;2022-10-20T03:50:19;25.83;;;16.23;;
18176;SDS011;9213;50.858;3.964;2022-10-20T03:52:46;31.93;;;17.97;;
18176;SDS011;9213;50.858;3.964;2022-10-20T03:55:15;30.97;;;17.67;;
18176;SDS011;9213;50.858;3.964;2022-10-20T03:57:42;31.00;;;17.23;;
18176;SDS011;9213;50.858;3.964;2022-10-20T04:00:09;28.80;;;17.17;;
18176;SDS011;9213;50.858;3.964;2022-10-20T04:02:38;32.57;;;17.73;;
18176;SDS011;9213;50.858;3.964;2022-10-20T04:05:07;27.90;;;17.90;;
18176;SDS011;9213;50.858;3.964;2022-10-20T04:07:36;27.70;;;17.53;;
18176;SDS011;9213;50.858;3.964;2022-10-20T04:10:03;32.40;;;17.23;;
18176;SDS011;9213;50.858;3.964;2022-10-20T04:12:31;28.90;;;17.90;;
18176;SDS011;9213;50.858;3.964;2022-10-20T04:14:58;31.47;;;16.60;;
18176;SDS011;9213;50.858;3.964;2022-10-20T04:17:25;26.07;;;16.47;;
18176;SDS011;9213;50.858;3.964;2022-10-20T04:19:52;28.67;;;16.67;;
18176;SDS011;9213;50.858;3.964;2022-10-20T04:22:19;28.37;;;17.67;;
18176;SDS011;9213;50.858;3.964;2022-10-20T04:24:46;31.70;;;17.90;;
18176;SDS011;9213;50.858;3.964;2022-10-20T04:27:13;30.80;;;15.60;;
18176;SDS011;9213;50.858;3.964;2022-10-20T04:29:42;28.63;;;16.90;;
18176;SDS011;9213;50.858;3.964;2022-10-20T04:32:09;26.63;;;16.40;;
18176;SDS011;9213;50.858;3.964;2022-10-20T04:34:36;30.43;;;16.60;;
18176;SDS011;9213;50.858;3.964;2022-10-20T04:37:02;26.53;;;15.87;;
18176;SDS011;9213;50.858;3.964;2022-10-20T04:39:29;30.57;;;16.13;;
18176;SDS011;9213;50.858;3.964;2022-10-20T04:41:56;25.47;;;15.37;;
18176;SDS011;9213;50.858;3.964;2022-10-20T04:44:23;27.37;;;16.83;;
18176;SDS011;9213;50.858;3.964;2022-10-20T04:46:53;29.93;;;16.87;;
18176;SDS011;9213;50.858;3.964;2022-10-20T04:49:20;26.50;;;15.63;;
18176;SDS011;9213;50.858;3.964;2022-10-20T04:51:47;29.70;;;16.90;;
18176;SDS011;9213;50.858;3.964;2022-10-20T04:54:14;27.00;;;17.03;;
18176;SDS011;9213;50.858;3.964;2022-10-20T04:56:41;28.83;;;18.07;;
18176;SDS011;9213;50.858;3.964;2022-10-20T04:59:08;25.33;;;15.63;;
18176;SDS011;9213;50.858;3.964;2022-10-20T05:01:35;29.77;;;16.90;;
18176;SDS011;9213;50.858;3.964;2022-10-20T05:04:03;24.23;;;15.60;;
18176;SDS011;9213;50.858;3.964;2022-10-20T05:06:31;21.17;;;15.20;;
18176;SDS011;9213;50.858;3.964;2022-10-20T05:08:59;23.93;;;15.40;;
18176;SDS011;9213;50.858;3.964;2022-10-20T05:11:27;26.17;;;16.00;;
18176;SDS011;9213;50.858;3.964;2022-10-20T05:13:55;23.40;;;14.70;;
18176;SDS011;9213;50.858;3.964;2022-10-20T05:16:22;24.57;;;15.80;;
18176;SDS011;9213;50.858;3.964;2022-10-20T05:18:49;24.27;;;15.13;;
18176;SDS011;9213;50.858;3.964;2022-10-20T05:21:19;23.37;;;15.10;;
18176;SDS011;9213;50.858;3.964;2022-10-20T05:23:52;27.40;;;15.57;;
18176;SDS011;9213;50.858;3.964;2022-10-20T05:26:20;29.17;;;14.87;;
18176;SDS011;9213;50.858;3.964;2022-10-20T05:28:48;25.07;;;15.00;;
18176;SDS011;9213;50.858;3.964;2022-10-20T05:31:16;22.57;;;14.73;;
18176;SDS011;9213;50.858;3.964;2022-10-20T05:33:45;29.77;;;17.60;;
18176;SDS011;9213;50.858;3.964;2022-10-20T05:36:14;21.83;;;15.17;;
18176;SDS011;9213;50.858;3.964;2022-10-20T05:38:46;24.27;;;15.17;;
18176;SDS011;9213;50.858;3.964;2022-10-20T05:41:14;28.50;;;16.27;;
18176;SDS011;9213;50.858;3.964;2022-10-20T05:43:45;25.80;;;15.10;;
18176;SDS011;9213;50.858;3.964;2022-10-20T05:46:14;26.60;;;16.27;;
18176;SDS011;9213;50.858;3.964;2022-10-20T05:48:41;24.67;;;16.00;;
18176;SDS011;9213;50.858;3.964;2022-10-20T05:51:08;23.40;;;16.70;;
18176;SDS011;9213;50.858;3.964;2022-10-20T05:53:37;23.67;;;15.87;;
18176;SDS011;9213;50.858;3.964;2022-10-20T05:56:06;27.93;;;15.93;;
18176;SDS011;9213;50.858;3.964;2022-10-20T05:58:34;27.03;;;16.93;;
18176;SDS011;9213;50.858;3.964;2022-10-20T06:01:05;31.60;;;17.27;;
18176;SDS011;9213;50.858;3.964;2022-10-20T06:03:33;27.93;;;15.87;;
18176;SDS011;9213;50.858;3.964;2022-10-20T06:06:00;33.17;;;17.23;;
18176;SDS011;9213;50.858;3.964;2022-10-20T06:08:29;28.73;;;17.70;;
18176;SDS011;9213;50.858;3.964;2022-10-20T06:10:56;28.43;;;18.00;;
18176;SDS011;9213;50.858;3.964;2022-10-20T06:13:28;27.03;;;17.90;;
18176;SDS011;9213;50.858;3.964;2022-10-20T06:15:59;29.77;;;17.70;;
18176;SDS011;9213;50.858;3.964;2022-10-20T06:18:27;25.73;;;16.90;;
18176;SDS011;9213;50.858;3.964;2022-10-20T06:20:57;29.63;;;18.10;;
18176;SDS011;9213;50.858;3.964;2022-10-20T06:23:25;28.97;;;17.20;;
18176;SDS011;9213;50.858;3.964;2022-10-20T06:25:52;25.20;;;17.50;;
18176;SDS011;9213;50.858;3.964;2022-10-20T06:28:19;30.23;;;18.07;;
18176;SDS011;9213;50.858;3.964;2022-10-20T06:30:48;28.63;;;18.00;;
18176;SDS011;9213;50.858;3.964;2022-10-20T06:33:15;25.93;;;17.33;;
18176;SDS011;9213;50.858;3.964;2022-10-20T06:35:41;25.07;;;17.00;;
18176;SDS011;9213;50.858;3.964;2022-10-20T06:38:08;25.07;;;16.63;;
18176;SDS011;9213;50.858;3.964;2022-10-20T06:40:35;23.27;;;16.70;;
18176;SDS011;9213;50.858;3.964;2022-10-20T06:43:02;24.30;;;17.03;;
18176;SDS011;9213;50.858;3.964;2022-10-20T06:45:29;25.30;;;16.87;;
18176;SDS011;9213;50.858;3.964;2022-10-20T06:47:57;26.27;;;17.00;;
18176;SDS011;9213;50.858;3.964;2022-10-20T06:50:24;25.30;;;15.17;;
18176;SDS011;9213;50.858;3.964;2022-10-20T06:52:50;24.97;;;15.83;;
18176;SDS011;9213;50.858;3.964;2022-10-20T06:55:17;21.87;;;15.53;;
18176;SDS011;9213;50.858;3.964;2022-10-20T06:57:44;23.00;;;16.07;;
18176;SDS011;9213;50.858;3.964;2022-10-20T07:00:11;22.57;;;15.70;;
18176;SDS011;9213;50.858;3.964;2022-10-20T07:02:39;24.60;;;15.80;;
18176;SDS011;9213;50.858;3.964;2022-10-20T07:05:07;23.57;;;16.30;;
18176;SDS011;9213;50.858;3.964;2022-10-20T07:07:34;25.10;;;16.13;;
18176;SDS011;9213;50.858;3.964;2022-10-20T07:10:01;21.73;;;16.27;;
18176;SDS011;9213;50.858;3.964;2022-10-20T07:12:28;25.40;;;16.23;;
18176;SDS011;9213;50.858;3.964;2022-10-20T07:14:55;23.20;;;16.20;;
18176;SDS011;9213;50.858;3.964;2022-10-20T07:17:21;23.47;;;15.87;;
18176;SDS011;9213;50.858;3.964;2022-10-20T07:19:48;26.47;;;16.83;;
18176;SDS011;9213;50.858;3.964;2022-10-20T07:22:16;24.50;;;16.90;;
18176;SDS011;9213;50.858;3.964;2022-10-20T07:24:43;24.57;;;16.03;;
18176;SDS011;9213;50.858;3.964;2022-10-20T07:27:10;19.80;;;14.93;;
18176;SDS011;9213;50.858;3.964;2022-10-20T07:29:37;18.90;;;14.87;;
18176;SDS011;9213;50.858;3.964;2022-10-20T07:32:04;22.40;;;15.77;;
18176;SDS011;9213;50.858;3.964;2022-10-20T07:34:31;27.80;;;15.87;;
18176;SDS011;9213;50.858;3.964;2022-10-20T07:36:58;24.83;;;15.93;;
18176;SDS011;9213;50.858;3.964;2022-10-20T07:39:26;21.83;;;14.87;;
18176;SDS011;9213;50.858;3.964;2022-10-20T07:41:53;30.20;;;15.57;;
18176;SDS011;9213;50.858;3.964;2022-10-20T07:44:20;21.90;;;15.40;;
18176;SDS011;9213;50.858;3.964;2022-10-20T07:46:47;26.83;;;15.90;;
18176;SDS011;9213;50.858;3.964;2022-10-20T07:49:14;21.73;;;15.43;;
18176;SDS011;9213;50.858;3.964;2022-10-20T07:51:40;24.50;;;15.93;;
18176;SDS011;9213;50.858;3.964;2022-10-20T07:54:07;21.03;;;15.60;;
18176;SDS011;9213;50.858;3.964;2022-10-20T07:56:37;23.13;;;16.80;;
18176;SDS011;9213;50.858;3.964;2022-10-20T07:59:05;28.57;;;17.53;;
18176;SDS011;9213;50.858;3.964;2022-10-20T08:01:34;31.50;;;16.97;;
18176;SDS011;9213;50.858;3.964;2022-10-20T08:04:02;27.60;;;17.03;;
18176;SDS011;9213;50.858;3.964;2022-10-20T08:06:29;25.90;;;17.83;;
18176;SDS011;9213;50.858;3.964;2022-10-20T08:08:56;22.70;;;17.10;;
18176;SDS011;9213;50.858;3.964;2022-10-20T08:11:24;27.87;;;17.73;;
18176;SDS011;9213;50.858;3.964;2022-10-20T08:13:52;25.07;;;17.10;;
18176;SDS011;9213;50.858;3.964;2022-10-20T08:16:19;27.03;;;18.10;;
18176;SDS011;9213;50.858;3.964;2022-10-20T08:18:46;31.60;;;17.90;;
18176;SDS011;9213;50.858;3.964;2022-10-20T08:21:14;28.77;;;16.77;;
18176;SDS011;9213;50.858;3.964;2022-10-20T08:23:42;27.90;;;17.77;;
18176;SDS011;9213;50.858;3.964;2022-10-20T08:26:11;30.63;;;17.57;;
18176;SDS011;9213;50.858;3.964;2022-10-20T08:28:41;32.43;;;19.60;;
18176;SDS011;9213;50.858;3.964;2022-10-20T08:31:09;31.83;;;19.67;;
18176;SDS011;9213;50.858;3.964;2022-10-20T08:33:36;34.77;;;20.50;;
18176;SDS011;9213;50.858;3.964;2022-10-20T08:36:04;35.43;;;20.43;;
18176;SDS011;9213;50.858;3.964;2022-10-20T08:38:32;34.20;;;20.80;;
18176;SDS011;9213;50.858;3.964;2022-10-20T08:41:00;35.83;;;21.63;;
18176;SDS011;9213;50.858;3.964;2022-10-20T08:43:28;36.13;;;21.10;;
18176;SDS011;9213;50.858;3.964;2022-10-20T08:45:56;35.93;;;21.40;;
18176;SDS011;9213;50.858;3.964;2022-10-20T08:48:26;33.63;;;22.20;;
18176;SDS011;9213;50.858;3.964;2022-10-20T08:50:57;39.50;;;23.77;;
18176;SDS011;9213;50.858;3.964;2022-10-20T08:53:24;44.30;;;23.57;;
18176;SDS011;9213;50.858;3.964;2022-10-20T08:55:53;43.07;;;25.07;;
18176;SDS011;9213;50.858;3.964;2022-10-20T08:58:21;40.37;;;24.00;;
18176;SDS011;9213;50.858;3.964;2022-10-20T09:00:49;41.33;;;23.97;;
18176;SDS011;9213;50.858;3.964;2022-10-20T09:03:22;42.00;;;25.13;;
18176;SDS011;9213;50.858;3.964;2022-10-20T09:05:53;47.73;;;24.80;;
18176;SDS011;9213;50.858;3.964;2022-10-20T09:08:27;41.17;;;25.13;;
18176;SDS011;9213;50.858;3.964;2022-10-20T09:10:56;40.67;;;23.60;;
18176;SDS011;9213;50.858;3.964;2022-10-20T09:13:24;37.80;;;24.53;;
18176;SDS011;9213;50.858;3.964;2022-10-20T09:15:53;34.90;;;22.80;;
18176;SDS011;9213;50.858;3.964;2022-10-20T09:18:24;45.97;;;25.53;;
18176;SDS011;9213;50.858;3.964;2022-10-20T09:20:53;38.33;;;24.83;;
18176;SDS011;9213;50.858;3.964;2022-10-20T09:23:23;36.37;;;22.37;;
18176;SDS011;9213;50.858;3.964;2022-10-20T09:25:54;35.53;;;21.97;;
18176;SDS011;9213;50.858;3.964;2022-10-20T09:28:22;36.13;;;21.17;;
18176;SDS011;9213;50.858;3.964;2022-10-20T09:30:50;36.27;;;23.20;;
18176;SDS011;9213;50.858;3.964;2022-10-20T09:33:22;32.60;;;19.83;;
18176;SDS011;9213;50.858;3.964;2022-10-20T09:35:56;30.27;;;21.33;;
18176;SDS011;9213;50.858;3.964;2022-10-20T09:38:29;33.90;;;21.23;;
18176;SDS011;9213;50.858;3.964;2022-10-20T09:41:02;29.53;;;20.07;;
18176;SDS011;9213;50.858;3.964;2022-10-20T09:43:36;28.80;;;19.07;;
18176;SDS011;9213;50.858;3.964;2022-10-20T09:46:06;27.77;;;18.30;;
18176;SDS011;9213;50.858;3.964;2022-10-20T09:48:34;26.87;;;16.90;;
18176;SDS011;9213;50.858;3.964;2022-10-20T09:51:05;25.63;;;17.10;;
18176;SDS011;9213;50.858;3.964;2022-10-20T09:53:39;29.63;;;17.03;;
18176;SDS011;9213;50.858;3.964;2022-10-20T09:56:22;24.27;;;16.30;;
18176;SDS011;9213;50.858;3.964;2022-10-20T09:58:50;21.53;;;13.70;;
18176;SDS011;9213;50.858;3.964;2022-10-20T10:01:17;23.13;;;13.40;;
18176;SDS011;9213;50.858;3.964;2022-10-20T10:03:45;20.47;;;13.80;;
18176;SDS011;9213;50.858;3.964;2022-10-20T10:06:26;21.93;;;14.43;;
18176;SDS011;9213;50.858;3.964;2022-10-20T10:08:55;22.10;;;12.90;;
18176;SDS011;9213;50.858;3.964;2022-10-20T10:11:25;19.60;;;14.63;;
18176;SDS011;9213;50.858;3.964;2022-10-20T10:13:57;21.77;;;14.00;;
18176;SDS011;9213;50.858;3.964;2022-10-20T10:16:25;23.57;;;14.50;;
18176;SDS011;9213;50.858;3.964;2022-10-20T10:18:54;27.03;;;15.60;;
18176;SDS011;9213;50.858;3.964;2022-10-20T10:21:27;18.03;;;13.57;;
18176;SDS011;9213;50.858;3.964;2022-10-20T10:23:55;24.50;;;12.97;;
18176;SDS011;9213;50.858;3.964;2022-10-20T10:26:31;20.63;;;13.07;;
18176;SDS011;9213;50.858;3.964;2022-10-20T10:29:16;19.47;;;12.60;;
18176;SDS011;9213;50.858;3.964;2022-10-20T10:31:50;18.83;;;12.67;;
18176;SDS011;9213;50.858;3.964;2022-10-20T10:34:24;18.67;;;11.87;;
18176;SDS011;9213;50.858;3.964;2022-10-20T10:37:12;17.17;;;12.50;;
18176;SDS011;9213;50.858;3.964;2022-10-20T10:39:41;13.73;;;10.70;;
18176;SDS011;9213;50.858;3.964;2022-10-20T10:42:14;18.00;;;11.30;;
18176;SDS011;9213;50.858;3.964;2022-10-20T10:45:02;15.13;;;10.97;;
18176;SDS011;9213;50.858;3.964;2022-10-20T10:47:47;15.30;;;10.47;;
18176;SDS011;9213;50.858;3.964;2022-10-20T10:50:30;15.90;;;10.10;;
18176;SDS011;9213;50.858;3.964;2022-10-20T10:53:05;11.63;;;9.33;;
18176;SDS011;9213;50.858;3.964;2022-10-20T10:55:47;13.13;;;9.97;;
18176;SDS011;9213;50.858;3.964;2022-10-20T10:58:26;12.50;;;9.30;;
18176;SDS011;9213;50.858;3.964;2022-10-20T11:01:02;16.10;;;9.87;;
18176;SDS011;9213;50.858;3.964;2022-10-20T11:03:43;15.90;;;9.20;;
18176;SDS011;9213;50.858;3.964;2022-10-20T11:06:18;10.77;;;8.23;;
18176;SDS011;9213;50.858;3.964;2022-10-20T11:09:04;14.40;;;9.23;;
18176;SDS011;9213;50.858;3.964;2022-10-20T11:11:45;11.50;;;9.00;;
18176;SDS011;9213;50.858;3.964;2022-10-20T11:14:27;14.33;;;8.03;;
18176;SDS011;9213;50.858;3.964;2022-10-20T11:17:11;13.83;;;8.30;;
18176;SDS011;9213;50.858;3.964;2022-10-20T11:19:51;11.13;;;8.10;;
18176;SDS011;9213;50.858;3.964;2022-10-20T11:22:35;9.60;;;7.47;;
18176;SDS011;9213;50.858;3.964;2022-10-20T11:25:12;11.33;;;7.77;;
18176;SDS011;9213;50.858;3.964;2022-10-20T11:27:45;15.67;;;7.83;;
18176;SDS011;9213;50.858;3.964;2022-10-20T11:30:12;12.67;;;7.97;;
18176;SDS011;9213;50.858;3.964;2022-10-20T11:32:43;13.77;;;7.80;;
18176;SDS011;9213;50.858;3.964;2022-10-20T11:35:20;10.67;;;8.03;;
18176;SDS011;9213;50.858;3.964;2022-10-20T11:37:54;14.50;;;7.63;;
18176;SDS011;9213;50.858;3.964;2022-10-20T11:40:31;16.07;;;8.27;;
18176;SDS011;9213;50.858;3.964;2022-10-20T11:43:04;14.63;;;7.80;;
18176;SDS011;9213;50.858;3.964;2022-10-20T11:45:38;14.27;;;7.50;;
18176;SDS011;9213;50.858;3.964;2022-10-20T11:48:15;10.43;;;6.40;;
18176;SDS011;9213;50.858;3.964;2022-10-20T11:50:49;12.67;;;6.77;;
18176;SDS011;9213;50.858;3.964;2022-10-20T11:53:33;13.77;;;5.70;;
18176;SDS011;9213;50.858;3.964;2022-10-20T11:56:36;14.00;;;5.70;;
18176;SDS011;9213;50.858;3.964;2022-10-20T11:59:20;10.23;;;4.90;;
18176;SDS011;9213;50.858;3.964;2022-10-20T12:02:18;8.87;;;5.07;;
18176;SDS011;9213;50.858;3.964;2022-10-20T12:05:06;8.80;;;5.07;;
18176;SDS011;9213;50.858;3.964;2022-10-20T12:07:56;7.50;;;4.90;;
18176;SDS011;9213;50.858;3.964;2022-10-20T12:10:40;6.68;;;4.60;;
18176;SDS011;9213;50.858;3.964;2022-10-20T12:13:19;8.13;;;4.43;;
18176;SDS011;9213;50.858;3.964;2022-10-20T12:15:54;7.20;;;3.63;;
18176;SDS011;9213;50.858;3.964;2022-10-20T12:18:23;5.30;;;3.83;;
18176;SDS011;9213;50.858;3.964;2022-10-20T12:20:53;8.38;;;3.75;;
18176;SDS011;9213;50.858;3.964;2022-10-20T12:26:42;5.38;;;3.20;;
18176;SDS011;9213;50.858;3.964;2022-10-20T12:35:29;6.70;;;3.70;;
18176;SDS011;9213;50.858;3.964;2022-10-20T12:38:17;5.25;;;3.63;;
18176;SDS011;9213;50.858;3.964;2022-10-20T12:40:48;8.15;;;3.80;;
18176;SDS011;9213;50.858;3.964;2022-10-20T12:43:29;10.43;;;3.80;;
18176;SDS011;9213;50.858;3.964;2022-10-20T12:46:04;5.38;;;3.40;;
18176;SDS011;9213;50.858;3.964;2022-10-20T12:48:34;7.55;;;3.60;;
18176;SDS011;9213;50.858;3.964;2022-10-20T12:51:07;6.80;;;3.28;;
18176;SDS011;9213;50.858;3.964;2022-10-20T12:53:48;6.72;;;3.35;;
18176;SDS011;9213;50.858;3.964;2022-10-20T12:56:19;5.72;;;3.38;;
18176;SDS011;9213;50.858;3.964;2022-10-20T13:04:54;4.88;;;3.08;;
18176;SDS011;9213;50.858;3.964;2022-10-20T13:10:27;5.13;;;3.22;;
18176;SDS011;9213;50.858;3.964;2022-10-20T13:12:57;9.50;;;3.13;;
18176;SDS011;9213;50.858;3.964;2022-10-20T13:16:02;3.60;;;2.45;;
18176;SDS011;9213;50.858;3.964;2022-10-20T13:18:36;5.82;;;2.70;;
18176;SDS011;9213;50.858;3.964;2022-10-20T13:21:16;4.32;;;2.97;;
18176;SDS011;9213;50.858;3.964;2022-10-20T13:23:49;4.55;;;2.78;;
18176;SDS011;9213;50.858;3.964;2022-10-20T13:26:21;8.63;;;3.20;;
18176;SDS011;9213;50.858;3.964;2022-10-20T13:28:50;7.72;;;2.85;;
18176;SDS011;9213;50.858;3.964;2022-10-20T13:31:20;4.45;;;2.28;;
18176;SDS011;9213;50.858;3.964;2022-10-20T13:33:51;6.72;;;2.85;;
18176;SDS011;9213;50.858;3.964;2022-10-20T13:36:32;4.32;;;2.67;;
18176;SDS011;9213;50.858;3.964;2022-10-20T13:39:11;2.85;;;2.50;;
18176;SDS011;9213;50.858;3.964;2022-10-20T13:41:45;7.60;;;2.92;;
18176;SDS011;9213;50.858;3.964;2022-10-20T13:44:21;4.93;;;2.70;;
18176;SDS011;9213;50.858;3.964;2022-10-20T13:46:59;4.25;;;2.28;;
18176;SDS011;9213;50.858;3.964;2022-10-20T13:49:41;4.45;;;2.63;;
18176;SDS011;9213;50.858;3.964;2022-10-20T13:52:20;4.13;;;2.85;;
18176;SDS011;9213;50.858;3.964;2022-10-20T13:54:47;7.80;;;2.83;;
18176;SDS011;9213;50.858;3.964;2022-10-20T13:57:24;6.90;;;2.78;;
18176;SDS011;9213;50.858;3.964;2022-10-20T13:59:54;5.40;;;2.70;;
18176;SDS011;9213;50.858;3.964;2022-10-20T14:02:23;5.22;;;3.17;;
18176;SDS011;9213;50.858;3.964;2022-10-20T14:05:00;4.35;;;2.80;;
18176;SDS011;9213;50.858;3.964;2022-10-20T14:07:36;4.90;;;2.80;;
18176;SDS011;9213;50.858;3.964;2022-10-20T14:10:05;5.05;;;2.60;;
18176;SDS011;9213;50.858;3.964;2022-10-20T14:12:33;4.32;;;2.83;;
18176;SDS011;9213;50.858;3.964;2022-10-20T14:15:00;4.45;;;2.67;;
18176;SDS011;9213;50.858;3.964;2022-10-20T14:17:31;3.20;;;2.55;;
18176;SDS011;9213;50.858;3.964;2022-10-20T14:20:07;7.55;;;2.58;;
18176;SDS011;9213;50.858;3.964;2022-10-20T14:22:44;6.68;;;2.65;;
18176;SDS011;9213;50.858;3.964;2022-10-20T14:25:12;8.95;;;2.78;;
18176;SDS011;9213;50.858;3.964;2022-10-20T14:27:39;5.78;;;2.70;;
18176;SDS011;9213;50.858;3.964;2022-10-20T14:30:12;3.88;;;2.33;;
18176;SDS011;9213;50.858;3.964;2022-10-20T14:32:41;5.43;;;2.90;;
18176;SDS011;9213;50.858;3.964;2022-10-20T14:35:15;5.70;;;2.78;;
18176;SDS011;9213;50.858;3.964;2022-10-20T14:37:52;5.70;;;2.60;;
18176;SDS011;9213;50.858;3.964;2022-10-20T14:40:23;4.70;;;2.47;;
18176;SDS011;9213;50.858;3.964;2022-10-20T14:42:55;8.63;;;2.80;;
18176;SDS011;9213;50.858;3.964;2022-10-20T14:45:25;6.45;;;2.70;;
18176;SDS011;9213;50.858;3.964;2022-10-20T14:47:53;4.63;;;2.30;;
18176;SDS011;9213;50.858;3.964;2022-10-20T14:50:24;3.13;;;2.47;;
18176;SDS011;9213;50.858;3.964;2022-10-20T14:52:54;3.67;;;2.47;;
18176;SDS011;9213;50.858;3.964;2022-10-20T14:55:25;6.63;;;2.78;;
18176;SDS011;9213;50.858;3.964;2022-10-20T14:57:55;4.13;;;2.67;;
18176;SDS011;9213;50.858;3.964;2022-10-20T15:00:24;5.35;;;2.80;;
18176;SDS011;9213;50.858;3.964;2022-10-20T15:02:54;8.50;;;2.55;;
18176;SDS011;9213;50.858;3.964;2022-10-20T15:05:23;5.53;;;2.65;;
18176;SDS011;9213;50.858;3.964;2022-10-20T15:08:05;4.05;;;2.80;;
18176;SDS011;9213;50.858;3.964;2022-10-20T15:10:34;6.65;;;2.78;;
18176;SDS011;9213;50.858;3.964;2022-10-20T15:13:01;7.18;;;2.72;;
18176;SDS011;9213;50.858;3.964;2022-10-20T15:15:35;6.55;;;2.90;;
18176;SDS011;9213;50.858;3.964;2022-10-20T15:18:08;6.60;;;2.92;;
18176;SDS011;9213;50.858;3.964;2022-10-20T15:20:36;5.05;;;3.05;;
18176;SDS011;9213;50.858;3.964;2022-10-20T15:23:07;5.63;;;2.60;;